Time;durP1;ratioP1;P1;durP2;ratioP2;P2;SDS_P1;SDS_P2;PMS_P1;PMS_P2;Temp;Humidity;BMP_temperature;BMP_pressure;BME280_temperature;BME280_humidity;BME280_pressure;Samples;Min_cycle;Max_cycle;Signal;HPM_P1;HPM_P2
2021/12/02 00:00:34;;;;;;;4.35;1.02;;;;;;;18.70;42.16;99816.06;5096855;28;20470;-68
2021/12/02 00:02:59;;;;;;;3.53;1.17;;;;;;;18.66;42.29;99819.00;5096189;28;20483;-67
2021/12/02 00:05:25;;;;;;;3.58;1.10;;;;;;;18.66;42.02;99823.47;5095716;28;20096;-68
2021/12/02 00:07:51;;;;;;;3.03;0.90;;;;;;;18.66;42.03;99823.47;5096035;28;20028;-68
2021/12/02 00:10:17;;;;;;;4.40;1.10;;;;;;;18.64;42.06;99828.03;5096200;28;20422;-68
2021/12/02 00:12:43;;;;;;;2.38;0.90;;;;;;;18.63;41.69;99836.97;5095611;28;20463;-68
2021/12/02 00:15:17;;;;;;;3.45;0.90;;;;;;;18.61;41.74;99837.13;5096363;28;20133;-69
2021/12/02 00:17:51;;;;;;;3.75;0.98;;;;;;;18.61;41.91;99841.53;5095620;28;20047;-67
2021/12/02 00:23:22;;;;;;;3.78;1.00;;;;;;;18.58;41.88;99842.69;5095661;28;20035;-67
2021/12/02 00:25:49;;;;;;;2.80;1.15;;;;;;;18.55;41.84;99843.00;5095743;28;20058;-68
2021/12/02 00:28:15;;;;;;;2.72;0.90;;;;;;;18.56;41.76;99846.44;5095529;28;20109;-68
2021/12/02 00:30:40;;;;;;;3.70;0.80;;;;;;;18.54;41.68;99846.59;5095409;28;20075;-68
2021/12/02 00:33:06;;;;;;;3.08;1.00;;;;;;;18.53;41.63;99841.47;5095599;28;20077;-68
2021/12/02 00:35:32;;;;;;;3.60;1.05;;;;;;;18.52;41.96;99840.66;5095345;28;20032;-67
2021/12/02 00:37:58;;;;;;;1.97;0.90;;;;;;;18.49;41.86;99831.22;5095559;28;20024;-67
2021/12/02 00:40:24;;;;;;;3.28;1.10;;;;;;;18.49;41.67;99840.94;5094896;28;20272;-68
2021/12/02 00:42:52;;;;;;;3.03;1.00;;;;;;;18.48;41.71;99828.72;5095243;28;20028;-68
2021/12/02 00:45:17;;;;;;;4.28;1.00;;;;;;;18.45;41.79;99832.53;5095444;28;20093;-68
2021/12/02 00:47:43;;;;;;;3.55;0.80;;;;;;;18.46;41.71;99823.59;5094328;28;20405;-67
2021/12/02 00:50:09;;;;;;;2.63;0.80;;;;;;;18.44;41.59;99822.94;5095298;28;20040;-67
2021/12/02 00:52:35;;;;;;;3.50;1.08;;;;;;;18.45;41.53;99836.94;5095200;28;20093;-67
2021/12/02 00:55:02;;;;;;;3.50;1.00;;;;;;;18.43;41.49;99829.19;5094259;28;20383;-68
2021/12/02 00:57:29;;;;;;;3.92;1.20;;;;;;;18.42;41.57;99830.19;5095439;28;20051;-68
2021/12/02 00:59:57;;;;;;;3.15;1.02;;;;;;;18.41;41.59;99825.06;5093534;28;20107;-68
2021/12/02 01:02:23;;;;;;;2.85;1.05;;;;;;;18.40;41.52;99824.22;5094327;28;20463;-68
2021/12/02 01:04:49;;;;;;;2.42;1.00;;;;;;;18.37;41.91;99815.78;5095264;28;20032;-68
2021/12/02 01:07:16;;;;;;;3.42;0.85;;;;;;;18.37;41.32;99818.41;5095237;28;20020;-69
2021/12/02 01:09:41;;;;;;;3.15;0.93;;;;;;;18.36;41.60;99828.16;5094430;28;20021;-68
2021/12/02 01:12:07;;;;;;;3.28;1.00;;;;;;;18.35;41.73;99829.13;5094982;28;20578;-68
2021/12/02 01:14:32;;;;;;;2.72;1.02;;;;;;;18.34;41.89;99827.47;5094762;28;20113;-68
2021/12/02 01:16:57;;;;;;;3.15;1.00;;;;;;;18.33;41.45;99840.81;5093844;28;20174;-68
2021/12/02 01:19:23;;;;;;;2.60;0.98;;;;;;;18.31;41.59;99836.50;5094966;28;20047;-67
2021/12/02 01:21:49;;;;;;;4.78;1.20;;;;;;;18.31;41.62;99833.88;5094769;28;20078;-68
2021/12/02 01:24:16;;;;;;;3.15;0.90;;;;;;;18.29;41.75;99835.00;5094165;28;20026;-68
2021/12/02 01:26:50;;;;;;;3.03;0.80;;;;;;;18.28;41.64;99850.00;5094535;28;20024;-68
2021/12/02 01:29:18;;;;;;;4.45;1.15;;;;;;;18.28;41.37;99838.63;5094796;28;20500;-67
2021/12/02 01:31:49;;;;;;;3.00;0.85;;;;;;;18.25;41.47;99825.72;5093770;28;20028;-68
2021/12/02 01:34:15;;;;;;;1.48;0.70;;;;;;;18.25;41.59;99837.09;5094893;28;20106;-68
2021/12/02 01:36:41;;;;;;;3.47;0.90;;;;;;;18.24;41.42;99839.88;5093596;28;20028;-68
2021/12/02 01:39:08;;;;;;;2.47;0.80;;;;;;;18.23;41.57;99846.97;5094778;28;20455;-68
2021/12/02 01:41:37;;;;;;;2.75;0.85;;;;;;;18.22;41.58;99842.69;5094360;28;20073;-67
2021/12/02 01:44:09;;;;;;;2.88;0.80;;;;;;;18.22;41.24;99853.22;5093397;28;20130;-68
2021/12/02 01:46:36;;;;;;;2.60;0.90;;;;;;;18.20;41.45;99852.56;5094204;28;20028;-68
2021/12/02 01:49:04;;;;;;;3.25;0.80;;;;;;;18.20;41.35;99849.91;5094118;28;20375;-69
2021/12/02 01:51:42;;;;;;;2.90;0.80;;;;;;;18.20;41.40;99846.44;5093848;28;20398;-69
2021/12/02 01:54:17;;;;;;;3.65;1.00;;;;;;;18.18;41.30;99840.47;5094059;28;20039;-70
2021/12/02 01:56:43;;;;;;;2.25;0.90;;;;;;;18.17;41.35;99844.13;5093941;28;20409;-68
2021/12/02 01:59:25;;;;;;;2.35;0.80;;;;;;;18.17;41.21;99838.84;5093416;28;20069;-69
2021/12/02 02:01:55;;;;;;;3.03;0.80;;;;;;;18.16;41.50;99848.53;5093873;28;20020;-68
2021/12/02 02:04:21;;;;;;;2.75;0.80;;;;;;;18.14;41.17;99839.97;5093977;28;20039;-69
2021/12/02 02:06:58;;;;;;;2.78;0.85;;;;;;;18.13;41.32;99841.78;5092860;28;20043;-69
2021/12/02 02:09:26;;;;;;;2.35;1.00;;;;;;;18.14;40.92;99847.88;5093895;28;20055;-67
2021/12/02 02:11:52;;;;;;;3.00;0.93;;;;;;;18.12;41.02;99847.19;5093286;28;20138;-69
2021/12/02 02:14:18;;;;;;;2.20;0.80;;;;;;;18.10;41.09;99844.72;5094039;28;20035;-70
2021/12/02 02:16:44;;;;;;;2.83;0.82;;;;;;;18.11;41.12;99843.72;5093238;28;20485;-69
2021/12/02 02:19:15;;;;;;;3.53;0.93;;;;;;;18.09;40.97;99844.84;5093309;28;20028;-68
2021/12/02 02:21:42;;;;;;;2.40;0.77;;;;;;;18.06;40.98;99848.59;5093609;28;20016;-69
2021/12/02 02:24:13;;;;;;;2.60;0.80;;;;;;;18.04;40.86;99840.03;5093945;28;20025;-68
2021/12/02 02:26:39;;;;;;;2.45;0.80;;;;;;;18.06;40.78;99847.78;5093011;28;20097;-70
2021/12/02 02:29:06;;;;;;;2.72;0.80;;;;;;;18.04;41.10;99845.28;5093602;28;20023;-67
2021/12/02 02:31:33;;;;;;;3.20;0.80;;;;;;;18.04;41.00;99847.94;5093520;28;20026;-68
2021/12/02 02:33:59;;;;;;;2.28;0.80;;;;;;;18.05;40.70;99838.22;5092693;28;20189;-67
2021/12/02 02:36:30;;;;;;;2.42;0.80;;;;;;;18.03;40.87;99843.63;5093640;28;20052;-69
2021/12/02 02:39:05;;;;;;;2.92;0.85;;;;;;;18.03;40.80;99851.53;5093309;28;20024;-68
2021/12/02 02:41:39;;;;;;;2.55;0.70;;;;;;;18.02;41.27;99849.88;5092766;28;20113;-67
2021/12/02 02:44:05;;;;;;;2.13;0.73;;;;;;;18.02;40.80;99849.03;5093429;28;20032;-69
2021/12/02 02:46:35;;;;;;;2.88;0.80;;;;;;;18.03;40.87;99848.09;5093236;28;20051;-67
2021/12/02 02:49:04;;;;;;;2.67;0.70;;;;;;;18.04;40.93;99852.34;5092550;28;20039;-68
2021/12/02 02:51:31;;;;;;;2.08;0.70;;;;;;;18.02;41.15;99846.41;5093331;28;20024;-69
2021/12/02 02:54:03;;;;;;;1.30;0.65;;;;;;;18.03;40.78;99843.63;5092227;28;20032;-68
2021/12/02 02:56:31;;;;;;;2.13;0.80;;;;;;;18.06;40.87;99847.78;5093093;28;20130;-70
2021/12/02 02:59:17;;;;;;;1.95;0.63;;;;;;;18.05;40.47;99843.47;5092639;28;20028;-69
2021/12/02 03:01:53;;;;;;;2.55;0.70;;;;;;;18.08;40.66;99851.09;5092116;28;20020;-69
2021/12/02 03:12:04;;;;;;;3.05;0.70;;;;;;;18.08;40.57;99845.81;5092652;28;20108;-68
2021/12/02 03:14:47;;;;;;;2.97;0.65;;;;;;;18.08;40.70;99849.28;5092795;28;20031;-68
2021/12/02 03:17:13;;;;;;;2.08;0.70;;;;;;;18.07;40.26;99842.38;5091998;28;20104;-68
2021/12/02 03:19:43;;;;;;;2.00;0.70;;;;;;;18.09;40.33;99850.94;5092780;28;20441;-68
2021/12/02 03:22:10;;;;;;;1.00;0.50;;;;;;;18.09;40.58;99847.50;5091527;28;20028;-69
2021/12/02 03:24:35;;;;;;;2.08;0.70;;;;;;;18.08;40.32;99857.19;5092933;28;20040;-68
2021/12/02 03:27:01;;;;;;;2.20;0.70;;;;;;;18.09;40.34;99855.41;5092591;28;20456;-67
2021/12/02 03:29:26;;;;;;;2.55;0.73;;;;;;;18.07;40.52;99855.56;5092021;28;20090;-68
2021/12/02 03:31:51;;;;;;;1.65;0.60;;;;;;;18.08;40.42;99859.00;5092359;28;20024;-68
2021/12/02 03:34:17;;;;;;;2.33;0.80;;;;;;;18.07;40.32;99868.72;5092638;28;20036;-69
2021/12/02 03:36:43;;;;;;;2.00;0.60;;;;;;;18.08;40.30;99872.19;5091683;28;20464;-68
2021/12/02 03:39:10;;;;;;;1.98;0.60;;;;;;;18.07;40.55;99871.38;5092960;28;20036;-67
2021/12/02 03:41:37;;;;;;;3.25;0.80;;;;;;;18.08;40.60;99872.19;5092453;28;20056;-68
2021/12/02 03:44:02;;;;;;;3.60;0.80;;;;;;;18.07;40.48;99875.78;5091404;28;20100;-67
2021/12/02 03:46:28;;;;;;;2.58;0.55;;;;;;;18.07;40.65;99876.63;5092521;28;20028;-68
2021/12/02 03:48:55;;;;;;;2.17;0.70;;;;;;;18.08;40.48;99891.47;5092093;28;20028;-68
2021/12/02 03:51:20;;;;;;;2.42;0.60;;;;;;;18.08;40.49;99894.09;5092075;28;20036;-67
2021/12/02 03:53:46;;;;;;;1.98;0.63;;;;;;;18.09;40.37;99887.88;5092256;28;20367;-68
2021/12/02 03:56:12;;;;;;;2.75;0.70;;;;;;;18.09;40.57;99885.22;5092447;28;20109;-68
2021/12/02 03:58:39;;;;;;;2.17;0.93;;;;;;;18.09;40.55;99869.41;5091752;28;20028;-68
2021/12/02 04:01:06;;;;;;;2.17;0.70;;;;;;;18.10;40.49;99871.06;5092418;28;20112;-69
2021/12/02 04:03:32;;;;;;;2.72;0.65;;;;;;;18.10;40.20;99867.59;5092365;28;20022;-70
2021/12/02 04:05:58;;;;;;;2.05;0.43;;;;;;;18.08;40.27;99867.72;5091491;28;20044;-66
2021/12/02 04:08:30;;;;;;;1.48;0.50;;;;;;;18.07;40.00;99862.59;5092774;28;20046;-68
2021/12/02 04:11:00;;;;;;;2.30;0.70;;;;;;;18.07;39.93;99858.19;5092403;28;20029;-69
2021/12/02 04:13:32;;;;;;;1.67;0.60;;;;;;;18.09;39.91;99858.84;5091775;28;20035;-68
2021/12/02 04:16:02;;;;;;;2.13;0.52;;;;;;;18.08;40.10;99857.19;5092177;28;20068;-69
2021/12/02 04:18:27;;;;;;;3.40;0.70;;;;;;;18.08;39.89;99859.00;5091437;28;20059;-67
2021/12/02 04:20:53;;;;;;;1.67;0.65;;;;;;;18.08;40.00;99864.28;5092251;28;20103;-68
2021/12/02 04:23:18;;;;;;;1.50;0.55;;;;;;;18.06;39.85;99864.44;5092323;28;20414;-68
2021/12/02 04:25:44;;;;;;;2.72;0.60;;;;;;;18.06;40.09;99858.34;5091287;28;20111;-67
2021/12/02 04:28:09;;;;;;;1.65;0.50;;;;;;;18.06;39.76;99861.78;5092343;28;20024;-67
2021/12/02 04:30:37;;;;;;;1.45;0.63;;;;;;;18.05;39.74;99860.13;5092158;28;20032;-68
2021/12/02 04:33:02;;;;;;;2.70;0.60;;;;;;;18.04;39.88;99861.13;5092462;28;20020;-68
2021/12/02 04:35:27;;;;;;;2.17;0.65;;;;;;;18.04;40.16;99858.47;5095812;28;20032;-67
2021/12/02 04:37:53;;;;;;;2.42;0.77;;;;;;;18.05;40.17;99862.75;5095725;28;20036;-68
2021/12/02 04:40:21;;;;;;;3.85;0.73;;;;;;;18.05;40.03;99868.03;5095032;28;20421;-69
2021/12/02 04:42:48;;;;;;;1.30;0.50;;;;;;;18.07;40.28;99875.78;5095736;28;20089;-68
2021/12/02 04:45:13;;;;;;;2.65;0.70;;;;;;;18.07;40.09;99876.63;5095995;28;20094;-68
2021/12/02 04:47:39;;;;;;;2.95;0.60;;;;;;;18.08;39.99;99882.72;5095458;28;20052;-67
2021/12/02 04:50:08;;;;;;;2.75;0.60;;;;;;;18.07;40.14;99881.91;5096110;28;20043;-68
2021/12/02 04:52:35;;;;;;;2.20;0.60;;;;;;;18.07;40.07;99879.28;5097529;28;20024;-68
2021/12/02 04:55:00;;;;;;;2.47;0.57;;;;;;;18.07;40.14;99886.34;5096844;28;20071;-67
2021/12/02 04:57:25;;;;;;;1.58;0.50;;;;;;;18.06;39.62;99889.97;5097690;28;20089;-67
2021/12/02 04:59:51;;;;;;;1.65;0.50;;;;;;;18.06;39.80;99882.06;5096275;28;20024;-67
2021/12/02 05:02:16;;;;;;;2.08;0.60;;;;;;;18.07;39.93;99881.06;5095008;28;20097;-67
2021/12/02 05:04:41;;;;;;;2.20;0.65;;;;;;;18.06;39.91;99882.06;5095375;28;20444;-67
2021/12/02 05:07:07;;;;;;;1.93;0.70;;;;;;;18.06;39.63;99898.69;5095422;28;20024;-68
2021/12/02 05:09:32;;;;;;;2.47;0.52;;;;;;;18.06;39.64;99895.25;5094705;28;20288;-68
2021/12/02 05:11:57;;;;;;;2.13;0.50;;;;;;;18.05;39.98;99904.13;5094899;28;20031;-68
2021/12/02 05:14:23;;;;;;;2.65;0.60;;;;;;;18.04;39.64;99903.31;5095246;28;20027;-67
2021/12/02 05:16:48;;;;;;;2.97;0.70;;;;;;;18.05;39.99;99910.22;5094146;28;20076;-68
2021/12/02 05:19:13;;;;;;;2.30;0.55;;;;;;;18.05;39.66;99907.56;5095155;28;20031;-68
2021/12/02 05:21:39;;;;;;;2.03;0.50;;;;;;;18.05;40.31;99917.31;5094581;28;20061;-67
2021/12/02 05:24:05;;;;;;;1.10;0.45;;;;;;;18.05;40.03;99917.31;5094951;28;20030;-67
2021/12/02 05:26:30;;;;;;;1.27;0.40;;;;;;;18.04;40.60;99916.47;5095136;28;20036;-67
2021/12/02 05:28:55;;;;;;;1.35;0.50;;;;;;;18.05;40.16;99927.84;5094427;28;20485;-68
2021/12/02 05:31:21;;;;;;;1.38;0.40;;;;;;;18.06;40.36;99926.88;5095659;28;20089;-68
2021/12/02 05:33:47;;;;;;;1.65;0.50;;;;;;;18.07;40.30;99920.63;5099922;28;20092;-69
2021/12/02 05:36:13;;;;;;;1.67;0.50;;;;;;;18.06;39.91;99906.63;5097105;28;20016;-68
2021/12/02 05:38:39;;;;;;;1.52;0.50;;;;;;;18.06;39.90;99906.63;5094873;28;20030;-68
2021/12/02 05:41:05;;;;;;;1.48;0.45;;;;;;;18.07;40.02;99907.44;5094833;28;20048;-68
2021/12/02 05:43:30;;;;;;;1.63;0.50;;;;;;;18.06;39.69;99906.63;5093973;28;20082;-67
2021/12/02 05:45:56;;;;;;;1.50;0.57;;;;;;;18.07;39.84;99908.28;5093757;28;20024;-69
2021/12/02 05:48:22;;;;;;;1.33;0.50;;;;;;;18.06;39.50;99911.88;5094635;28;20051;-68
2021/12/02 05:50:49;;;;;;;1.70;0.50;;;;;;;18.07;39.42;99925.88;5093187;28;20024;-68
2021/12/02 05:53:14;;;;;;;1.67;0.60;;;;;;;18.04;39.36;99924.38;5094325;28;20044;-68
2021/12/02 05:55:40;;;;;;;1.48;0.45;;;;;;;18.03;39.51;99925.34;5093798;28;20470;-68
2021/12/02 05:58:10;;;;;;;1.77;0.55;;;;;;;18.04;39.53;99934.94;5093307;28;20020;-68
2021/12/02 06:00:36;;;;;;;3.13;0.70;;;;;;;18.05;40.05;99933.13;5094315;28;20027;-68
2021/12/02 06:03:02;;;;;;;1.70;0.45;;;;;;;18.05;41.16;99926.03;5093758;28;20161;-67
2021/12/02 06:05:28;;;;;;;2.90;0.50;;;;;;;18.05;41.16;99918.13;5093366;28;20024;-67
2021/12/02 06:07:56;;;;;;;1.27;0.43;;;;;;;18.06;41.75;99919.78;5093547;28;20020;-68
2021/12/02 06:10:22;;;;;;;1.63;0.50;;;;;;;18.08;41.90;99912.56;5093774;28;20489;-68
2021/12/02 06:12:48;;;;;;;0.82;0.38;;;;;;;18.09;41.61;99924.78;5092878;28;20114;-68
2021/12/02 06:15:14;;;;;;;0.63;0.30;;;;;;;18.09;41.80;99919.50;5093775;28;20074;-68
2021/12/02 06:17:40;;;;;;;1.88;0.50;;;;;;;18.12;41.82;99926.31;5093272;28;20126;-68
2021/12/02 06:20:07;;;;;;;0.95;0.38;;;;;;;18.15;41.55;99928.66;5093154;28;20039;-67
2021/12/02 06:22:33;;;;;;;1.52;0.50;;;;;;;18.16;41.91;99927.66;5093652;28;20027;-67
2021/12/02 06:27:40;;;;;;;1.33;0.52;;;;;;;18.20;41.88;99934.31;5093634;28;20394;-67
2021/12/02 06:30:06;;;;;;;1.67;0.40;;;;;;;18.21;41.71;99943.84;5093484;28;20113;-67
2021/12/02 06:32:31;;;;;;;0.93;0.40;;;;;;;18.24;41.44;99948.84;5092734;28;20029;-67
2021/12/02 06:34:57;;;;;;;1.40;0.50;;;;;;;18.24;41.61;99948.84;5093118;28;20039;-68
2021/12/02 06:37:23;;;;;;;1.63;0.45;;;;;;;18.27;41.61;99951.19;5093347;28;20387;-68
2021/12/02 06:39:48;;;;;;;1.65;0.50;;;;;;;18.27;41.38;99938.00;5092244;28;20095;-67
2021/12/02 06:42:14;;;;;;;1.55;0.47;;;;;;;18.30;41.48;99936.88;5093335;28;20107;-68
2021/12/02 06:44:40;;;;;;;1.92;0.60;;;;;;;18.29;41.74;99930.78;5092787;28;20429;-68
2021/12/02 06:47:05;;;;;;;1.17;0.43;;;;;;;18.31;40.64;99930.63;5092387;28;20032;-68
2021/12/02 06:49:32;;;;;;;2.28;0.52;;;;;;;18.28;40.37;99939.66;5093111;28;20024;-67
2021/12/02 06:51:58;;;;;;;2.05;0.52;;;;;;;18.29;40.65;99943.97;5092828;28;20024;-67
2021/12/02 06:54:23;;;;;;;3.22;0.55;;;;;;;18.30;39.31;99947.44;5092197;28;20532;-70
2021/12/02 06:56:48;;;;;;;2.25;0.60;;;;;;;18.30;40.50;99964.06;5091706;28;20016;-67
2021/12/02 06:59:14;;;;;;;1.10;0.47;;;;;;;18.32;40.53;99974.47;5093066;28;20028;-68
2021/12/02 07:01:39;;;;;;;3.07;0.70;;;;;;;18.36;40.34;99965.31;5092137;28;20036;-68
2021/12/02 07:04:04;;;;;;;1.45;0.60;;;;;;;18.38;40.41;99975.72;5092796;28;20276;-65
2021/12/02 07:06:30;;;;;;;1.67;0.55;;;;;;;18.41;40.39;99988.63;5092756;28;20463;-68
2021/12/02 07:08:55;;;;;;;3.63;0.75;;;;;;;18.42;40.41;99980.56;5091512;28;20121;-65
2021/12/02 07:11:20;;;;;;;2.83;0.73;;;;;;;18.43;40.09;99984.84;5092874;28;20387;-66
2021/12/02 07:13:48;;;;;;;3.70;0.60;;;;;;;18.44;40.29;99983.88;5092402;28;22231;-65
2021/12/02 07:16:13;;;;;;;2.65;0.68;;;;;;;18.46;40.36;99997.72;5092034;28;20028;-65
2021/12/02 07:18:42;;;;;;;4.85;0.90;;;;;;;18.46;40.07;99992.47;5092502;28;20146;-67
2021/12/02 07:21:08;;;;;;;2.50;0.57;;;;;;;18.46;39.89;99989.81;5091901;28;20084;-65
2021/12/02 07:23:33;;;;;;;1.77;0.63;;;;;;;18.48;40.23;100000.22;5092959;28;20024;-65
2021/12/02 07:25:59;;;;;;;2.72;0.90;;;;;;;18.48;40.10;100003.72;5092364;28;20382;-66
2021/12/02 07:28:25;;;;;;;2.55;0.60;;;;;;;18.49;40.09;100002.72;5091812;28;20046;-68
2021/12/02 07:30:55;;;;;;;3.05;0.50;;;;;;;18.51;40.18;100009.66;5092231;28;20036;-68
2021/12/02 07:33:21;;;;;;;2.15;0.63;;;;;;;18.53;40.46;100008.53;5092371;28;20384;-69
2021/12/02 07:35:47;;;;;;;2.60;0.60;;;;;;;18.55;40.77;100014.50;5091210;28;20032;-66
2021/12/02 07:38:13;;;;;;;2.67;0.68;;;;;;;18.57;40.93;100017.81;5092520;28;20122;-65
2021/12/02 07:40:41;;;;;;;1.92;0.60;;;;;;;18.58;40.69;100018.63;5092547;28;20027;-68
2021/12/02 07:43:07;;;;;;;1.90;0.68;;;;;;;18.58;40.07;100021.28;5091499;28;20379;-70
2021/12/02 07:45:35;;;;;;;4.80;0.60;;;;;;;18.57;40.19;100024.91;5092485;28;20043;-71
2021/12/02 07:48:03;;;;;;;2.35;0.50;;;;;;;18.58;40.31;100027.41;5092062;28;20035;-69
2021/12/02 07:50:29;;;;;;;2.70;0.50;;;;;;;18.61;40.71;100026.25;5091669;28;20383;-67
2021/12/02 07:52:58;;;;;;;2.95;0.60;;;;;;;18.61;41.12;100026.25;5091974;28;20016;-69
2021/12/02 07:55:24;;;;;;;4.85;0.93;;;;;;;18.58;40.42;100022.13;5092514;28;20029;-67
2021/12/02 07:57:51;;;;;;;2.75;0.60;;;;;;;18.58;40.76;100027.41;5091173;28;20431;-69
2021/12/02 08:00:19;;;;;;;2.55;0.70;;;;;;;18.59;40.68;100021.13;5092262;28;20040;-69
2021/12/02 08:02:47;;;;;;;2.55;0.68;;;;;;;18.60;40.68;100037.81;5091736;28;20122;-69
2021/12/02 08:05:13;;;;;;;3.60;0.60;;;;;;;18.61;40.90;100042.09;5091854;28;20065;-68
2021/12/02 08:07:39;;;;;;;6.78;0.77;;;;;;;18.62;40.72;100039.31;5092935;28;20089;-67
2021/12/02 08:10:07;;;;;;;3.35;0.80;;;;;;;18.61;40.62;100035.03;5096384;28;20175;-67
2021/12/02 08:12:34;;;;;;;5.40;0.70;;;;;;;18.64;40.62;100039.16;5095511;28;20041;-65
2021/12/02 08:15:05;;;;;;;2.92;0.77;;;;;;;18.62;40.71;100041.94;5095698;28;20108;-66
2021/12/02 08:17:30;;;;;;;3.22;0.73;;;;;;;18.65;41.07;100046.94;5095145;28;20082;-67
2021/12/02 08:19:56;;;;;;;1.75;0.60;;;;;;;18.66;41.31;100055.69;5096036;28;20435;-68
2021/12/02 08:22:21;;;;;;;2.53;0.68;;;;;;;18.72;41.00;100049.00;5098053;28;20024;-69
2021/12/02 08:24:46;;;;;;;3.30;1.08;;;;;;;18.81;41.07;100056.84;5095377;28;20115;-68
2021/12/02 08:27:11;;;;;;;2.60;0.90;;;;;;;18.82;40.68;100052.41;5096154;28;20024;-68
2021/12/02 08:29:37;;;;;;;1.90;0.50;;;;;;;18.81;40.87;100056.84;5096241;28;20122;-68
2021/12/02 08:32:03;;;;;;;2.75;0.60;;;;;;;18.79;40.55;100052.72;5095117;28;20028;-69
2021/12/02 08:34:28;;;;;;;3.50;0.90;;;;;;;18.79;40.71;100061.44;5096234;28;20055;-69
2021/12/02 08:36:55;;;;;;;4.88;0.80;;;;;;;18.79;40.96;100053.53;5095566;28;20020;-69
2021/12/02 08:39:27;;;;;;;3.47;0.70;;;;;;;18.78;40.94;100057.13;5095159;28;20076;-69
2021/12/02 08:41:54;;;;;;;2.90;0.85;;;;;;;18.78;40.97;100062.41;5095563;28;20028;-68
2021/12/02 08:44:22;;;;;;;2.95;0.80;;;;;;;18.78;40.86;100059.78;5095992;28;20093;-69
2021/12/02 08:46:49;;;;;;;2.75;0.50;;;;;;;18.78;40.74;100069.53;5094425;28;20028;-68
2021/12/02 08:49:15;;;;;;;1.90;0.73;;;;;;;18.76;40.62;100072.31;5095761;28;20104;-72
2021/12/02 08:51:41;;;;;;;2.05;0.65;;;;;;;18.77;40.67;100083.69;5095167;28;20467;-68
2021/12/02 08:54:06;;;;;;;4.03;0.77;;;;;;;18.77;40.76;100088.97;5094634;28;20028;-69
2021/12/02 08:56:33;;;;;;;3.60;0.68;;;;;;;18.79;40.55;100097.59;5095197;28;20031;-67
2021/12/02 08:58:59;;;;;;;3.25;0.73;;;;;;;18.77;40.46;100105.66;5094864;28;20020;-67
2021/12/02 09:01:25;;;;;;;2.60;0.65;;;;;;;18.80;40.54;100110.63;5094616;28;20036;-67
2021/12/02 09:03:51;;;;;;;2.75;0.65;;;;;;;18.80;40.23;100112.44;5094995;28;20030;-66
2021/12/02 09:06:21;;;;;;;2.22;0.70;;;;;;;18.79;40.44;100116.88;5094692;28;20110;-68
2021/12/02 09:08:46;;;;;;;2.42;0.60;;;;;;;18.80;40.39;100123.84;5093924;28;20452;-68
2021/12/02 09:11:12;;;;;;;1.65;0.60;;;;;;;18.80;40.52;100123.84;5095220;28;20065;-69
2021/12/02 09:13:37;;;;;;;1.70;0.60;;;;;;;18.80;40.05;100125.63;5094167;28;20138;-69
2021/12/02 09:16:03;;;;;;;3.72;0.68;;;;;;;18.81;40.61;100130.75;5094323;28;20486;-67
2021/12/02 09:18:28;;;;;;;3.80;0.68;;;;;;;18.82;40.77;100136.91;5094574;28;20040;-69
2021/12/02 09:20:53;;;;;;;4.73;0.80;;;;;;;18.84;40.62;100137.59;5092602;28;20104;-67
2021/12/02 09:23:18;;;;;;;4.43;0.80;;;;;;;18.84;40.74;100137.59;5094575;28;20374;-69
2021/12/02 09:25:44;;;;;;;3.03;0.52;;;;;;;18.83;40.54;100135.91;5094424;28;20281;-68
2021/12/02 09:28:10;;;;;;;4.05;0.70;;;;;;;18.83;40.71;100141.19;5094011;28;20016;-67
2021/12/02 09:30:36;;;;;;;1.58;0.52;;;;;;;18.82;40.60;100150.91;5094345;28;20032;-68
2021/12/02 09:33:02;;;;;;;3.88;0.70;;;;;;;18.82;40.70;100156.19;5094315;28;20111;-69
2021/12/02 09:35:28;;;;;;;3.47;0.70;;;;;;;18.81;41.11;100149.25;5093581;28;20226;-66
2021/12/02 09:37:53;;;;;;;3.50;0.65;;;;;;;18.83;40.83;100151.72;4979390;28;20048;-67
2021/12/02 09:40:19;;;;;;;2.03;0.60;;;;;;;18.83;40.81;100152.59;5094134;28;20051;-67
2021/12/02 09:42:46;;;;;;;1.35;0.50;;;;;;;18.84;40.87;100148.16;5093528;28;20309;-67
2021/12/02 09:45:12;;;;;;;4.72;0.60;;;;;;;18.82;40.90;100148.28;5094389;28;20035;-66
2021/12/02 09:47:41;;;;;;;2.90;0.68;;;;;;;18.83;40.99;100162.28;5094859;28;20040;-67
2021/12/02 09:50:13;;;;;;;5.60;2.10;;;;;;;18.82;40.80;100160.66;5094085;28;20027;-69
2021/12/02 09:52:40;;;;;;;3.50;0.88;;;;;;;18.90;41.04;100162.56;5095616;28;20050;-69
2021/12/02 09:55:32;;;;;;;1.92;0.60;;;;;;;19.03;40.60;100166.53;5094770;28;20028;-67
2021/12/02 09:57:59;;;;;;;2.75;0.70;;;;;;;19.17;40.29;100159.13;5093387;28;20028;-68
2021/12/02 10:03:21;;;;;;;2.03;0.93;;;;;;;19.40;40.07;100148.94;5094122;28;20497;-68
2021/12/02 10:06:07;;;;;;;1.27;0.45;;;;;;;19.51;39.73;100150.53;5094552;28;20039;-69
2021/12/02 10:08:46;;;;;;;2.90;0.73;;;;;;;19.54;39.28;100156.34;5094462;28;20028;-64
2021/12/02 10:11:15;;;;;;;3.38;0.80;;;;;;;19.49;39.63;100155.16;5093628;28;20020;-71
2021/12/02 10:16:32;;;;;;;4.10;0.80;;;;;;;19.31;39.86;100160.41;5094342;28;20097;-72
2021/12/02 10:21:38;;;;;;;4.40;0.70;;;;;;;19.18;39.36;100166.03;5095183;28;20542;-71
2021/12/02 10:24:10;;;;;;;2.65;0.70;;;;;;;19.12;39.92;100170.13;5094266;28;20032;-71
2021/12/02 10:26:39;;;;;;;4.90;1.17;;;;;;;19.09;39.98;100175.69;5095140;28;20024;-72
2021/12/02 10:29:15;;;;;;;3.85;0.88;;;;;;;19.07;40.30;100177.63;5095609;28;20024;-72
2021/12/02 10:31:46;;;;;;;2.00;0.80;;;;;;;19.02;40.12;100174.59;5094583;28;20032;-72
2021/12/02 10:34:13;;;;;;;4.68;0.70;;;;;;;19.02;40.20;100179.88;5095600;28;20028;-72
2021/12/02 10:36:43;;;;;;;1.90;0.60;;;;;;;19.01;40.02;100180.88;5095401;28;20028;-73
2021/12/02 10:39:24;;;;;;;3.00;0.75;;;;;;;18.97;40.14;100182.97;5094662;28;20034;-73
2021/12/02 10:42:02;;;;;;;3.75;0.90;;;;;;;18.98;39.03;100197.03;5096553;28;20043;-74
2021/12/02 10:44:34;;;;;;;6.22;1.05;;;;;;;18.82;38.18;100193.16;5096811;28;20024;-72
2021/12/02 10:47:13;;;;;;;1.48;0.75;;;;;;;18.72;39.60;100200.25;5094638;28;20357;-74
2021/12/02 10:49:46;;;;;;;1.95;0.63;;;;;;;18.71;40.17;100203.03;5097470;28;20020;-70
2021/12/02 10:52:16;;;;;;;4.93;0.65;;;;;;;18.75;40.17;100209.72;5097688;28;20032;-71
2021/12/02 10:54:51;;;;;;;3.65;0.90;;;;;;;18.71;38.82;100198.63;5095374;28;20038;-69
2021/12/02 10:57:20;;;;;;;3.70;0.95;;;;;;;18.69;39.86;100203.19;5099146;28;20031;-68
2021/12/02 10:59:49;;;;;;;2.72;0.70;;;;;;;18.67;39.76;100203.34;5097363;28;20020;-69
2021/12/02 11:02:23;;;;;;;2.42;0.73;;;;;;;18.66;39.77;100206.97;5098283;28;20036;-69
2021/12/02 11:04:56;;;;;;;3.57;0.80;;;;;;;18.66;40.25;100209.59;5097889;28;20082;-68
2021/12/02 11:07:42;;;;;;;3.42;0.80;;;;;;;18.65;40.28;100215.84;5099693;28;20028;-67
2021/12/02 11:10:13;;;;;;;3.20;0.90;;;;;;;18.66;40.17;100206.13;5103207;28;20043;-69
2021/12/02 11:12:44;;;;;;;3.25;0.82;;;;;;;18.68;39.34;100214.75;5103894;28;20111;-69
2021/12/02 11:15:15;;;;;;;2.88;0.68;;;;;;;18.64;39.65;100219.47;5102457;28;20467;-68
2021/12/02 11:17:59;;;;;;;4.38;1.15;;;;;;;18.62;40.13;100228.50;5092736;28;20080;-69
2021/12/02 11:20:35;;;;;;;;;;;;;;;18.60;40.68;100227.81;5093158;28;20020;-70
2021/12/02 11:23:09;;;;;;;4.55;0.90;;;;;;;18.62;40.25;100224.03;5093615;28;19911;-68
2021/12/02 11:25:52;;;;;;;2.08;0.70;;;;;;;18.63;40.46;100224.91;5092892;28;20035;-67
2021/12/02 11:28:18;;;;;;;2.33;0.70;;;;;;;18.63;40.64;100217.81;5092959;28;20113;-66
2021/12/02 11:30:43;;;;;;;3.17;0.75;;;;;;;18.63;40.61;100219.63;5093019;28;20028;-67
2021/12/02 11:33:09;;;;;;;2.83;1.00;;;;;;;18.64;40.60;100227.41;5093036;28;20020;-66
2021/12/02 11:35:40;;;;;;;8.35;1.00;;;;;;;18.65;41.00;100220.31;5092772;28;20036;-66
2021/12/02 11:38:21;;;;;;;3.72;0.80;;;;;;;18.66;41.29;100228.06;5092838;28;20047;-67
2021/12/02 11:40:50;;;;;;;3.63;1.00;;;;;;;18.66;41.31;100228.06;5092544;28;20028;-67
2021/12/02 11:43:23;;;;;;;4.68;1.23;;;;;;;18.69;41.56;100240.13;5095446;28;20024;-66
2021/12/02 11:45:50;;;;;;;5.28;1.30;;;;;;;18.70;41.49;100235.72;5099091;28;20036;-67
2021/12/02 11:48:38;;;;;;;3.92;1.30;;;;;;;18.71;41.35;100235.56;5099220;28;20111;-67
2021/12/02 11:51:07;;;;;;;4.88;1.23;;;;;;;18.73;40.82;100235.44;5099258;28;20040;-68
2021/12/02 11:53:33;;;;;;;7.18;1.30;;;;;;;18.72;41.52;100242.50;5099135;28;20042;-67
2021/12/02 11:56:01;;;;;;;4.35;1.05;;;;;;;18.72;41.59;100239.84;5105657;28;20028;-67